createdAt,value
2023-05-11T00:00:52.547Z,18.73
2023-05-11T00:03:19.329Z,19.92
2023-05-11T00:05:49.506Z,19.57
2023-05-11T00:08:17.376Z,20.58
2023-05-11T00:13:13.869Z,18.85
2023-05-11T00:15:40.760Z,18.30
2023-05-11T00:18:07.522Z,18.83
2023-05-11T00:20:34.226Z,20.35
2023-05-11T00:23:00.912Z,18.42
2023-05-11T00:25:27.654Z,19.02
2023-05-11T00:27:54.354Z,18.75
2023-05-11T00:30:21.258Z,18.90
2023-05-11T00:32:49.033Z,17.70
2023-05-11T00:37:42.581Z,13.63
2023-05-11T00:40:09.680Z,17.60
2023-05-11T00:42:36.450Z,18.70
2023-05-11T00:45:03.293Z,19.95
2023-05-11T00:47:30.339Z,20.13
2023-05-11T00:49:57.971Z,20.50
2023-05-11T00:52:25.210Z,19.05
2023-05-11T00:54:52.296Z,20.30
2023-05-11T00:57:18.982Z,19.20
2023-05-11T00:59:47.144Z,19.63
2023-05-11T01:04:40.758Z,17.67
2023-05-11T01:07:19.505Z,17.95
2023-05-11T01:10:30.720Z,18.25
2023-05-11T01:14:02.240Z,18.55
2023-05-11T01:16:33.910Z,17.92
2023-05-11T01:19:11.254Z,17.85
2023-05-11T01:21:39.655Z,17.40
2023-05-11T01:24:09.095Z,16.90
2023-05-11T01:26:49.525Z,16.88
2023-05-11T01:29:18.425Z,16.77
2023-05-11T01:31:48.410Z,17.33
2023-05-11T01:34:21.672Z,16.63
2023-05-11T01:36:56.002Z,17.38
2023-05-11T01:39:32.808Z,16.60
2023-05-11T01:42:07.118Z,17.38
2023-05-11T01:44:35.649Z,16.58
2023-05-11T01:47:03.718Z,15.98
2023-05-11T01:49:33.776Z,16.30
2023-05-11T01:52:03.847Z,17.48
2023-05-11T01:54:31.701Z,15.82
2023-05-11T01:57:00.690Z,16.58
2023-05-11T01:59:28.999Z,15.48
2023-05-11T02:01:57.925Z,15.57
2023-05-11T02:04:25.905Z,15.75
2023-05-11T02:09:21.957Z,15.10
2023-05-11T02:11:51.474Z,16.42
2023-05-11T02:14:20.427Z,16.23
2023-05-11T02:16:49.921Z,14.82
2023-05-11T02:19:18.356Z,14.45
2023-05-11T02:21:46.323Z,15.05
2023-05-11T02:26:39.817Z,13.53
2023-05-11T02:29:06.808Z,14.70
2023-05-11T02:31:40.298Z,14.68
2023-05-11T02:34:19.042Z,14.70
2023-05-11T02:36:48.339Z,14.02
2023-05-11T02:39:21.780Z,13.07
2023-05-11T02:41:55.185Z,14.68
2023-05-11T02:44:24.523Z,13.27
2023-05-11T02:46:54.922Z,13.80
2023-05-11T02:49:25.409Z,13.80
2023-05-11T02:51:54.841Z,13.68
2023-05-11T02:54:23.937Z,13.52
2023-05-11T02:56:53.073Z,13.63
2023-05-11T02:59:20.970Z,14.15
2023-05-11T03:01:48.508Z,13.60
2023-05-11T03:04:15.558Z,14.50
2023-05-11T03:06:42.209Z,13.48
2023-05-11T03:09:10.262Z,13.57
2023-05-11T03:11:42.544Z,14.13
2023-05-11T03:14:09.510Z,13.40
2023-05-11T03:16:37.979Z,13.43
2023-05-11T03:19:07.353Z,12.48
2023-05-11T03:24:05.569Z,12.52
2023-05-11T03:26:33.644Z,12.32
2023-05-11T03:29:02.371Z,13.63
2023-05-11T03:31:29.491Z,12.95
2023-05-11T03:33:58.793Z,13.43
2023-05-11T03:36:27.067Z,13.88
2023-05-11T03:38:58.828Z,13.25
2023-05-11T03:41:34.144Z,13.27
2023-05-11T03:44:05.665Z,12.98
2023-05-11T03:46:37.891Z,14.00
2023-05-11T03:49:08.011Z,13.13
2023-05-11T03:51:36.385Z,13.02
2023-05-11T03:54:03.507Z,13.55
2023-05-11T03:56:30.485Z,12.70
2023-05-11T03:58:57.860Z,12.82
2023-05-11T04:01:26.240Z,13.45
2023-05-11T04:03:53.606Z,13.38
2023-05-11T04:06:22.394Z,13.68
2023-05-11T04:09:12.003Z,12.80
2023-05-11T04:11:39.074Z,12.95
2023-05-11T04:14:05.885Z,13.20
2023-05-11T04:16:32.700Z,12.77
2023-05-11T04:18:59.372Z,13.15
2023-05-11T04:21:26.211Z,11.98
2023-05-11T04:23:52.905Z,12.30
2023-05-11T04:26:19.570Z,12.77
2023-05-11T04:28:46.325Z,11.40
2023-05-11T04:31:14.093Z,11.95
2023-05-11T04:33:40.888Z,11.43
2023-05-11T04:36:07.820Z,11.68
2023-05-11T04:38:34.507Z,10.18
2023-05-11T04:41:05.755Z,11.33
2023-05-11T04:43:32.799Z,10.25
2023-05-11T04:45:59.483Z,10.75
2023-05-11T04:48:27.939Z,11.93
2023-05-11T04:50:55.477Z,10.75
2023-05-11T04:53:25.634Z,10.57
2023-05-11T04:55:52.675Z,9.30
2023-05-11T04:58:19.465Z,7.80
2023-05-11T05:00:46.133Z,8.98
2023-05-11T05:03:12.833Z,6.00
2023-05-11T05:05:39.544Z,9.23
2023-05-11T05:08:07.351Z,10.48
2023-05-11T05:10:34.030Z,10.43
2023-05-11T05:13:00.748Z,10.60
2023-05-11T05:15:27.446Z,9.88
2023-05-11T05:17:54.241Z,10.85
2023-05-11T05:20:21.149Z,12.23
2023-05-11T05:22:47.989Z,11.63
2023-05-11T05:25:14.650Z,10.70
2023-05-11T05:27:41.571Z,11.75
2023-05-11T05:30:12.152Z,12.65
2023-05-11T05:32:38.863Z,11.25
2023-05-11T05:35:05.906Z,11.20
2023-05-11T05:37:32.863Z,11.38
2023-05-11T05:39:59.557Z,10.32
2023-05-11T05:42:26.350Z,11.27
2023-05-11T05:44:53.107Z,12.00
2023-05-11T05:47:19.904Z,11.85
2023-05-11T05:49:47.077Z,11.48
2023-05-11T05:52:13.851Z,12.82
2023-05-11T05:54:41.431Z,12.80
2023-05-11T05:57:08.102Z,13.35
2023-05-11T05:59:35.084Z,13.80
2023-05-11T06:02:02.104Z,10.73
2023-05-11T06:04:29.738Z,13.02
2023-05-11T06:06:57.922Z,12.63
2023-05-11T06:09:24.577Z,13.20
2023-05-11T06:11:51.284Z,13.00
2023-05-11T06:14:18.661Z,12.18
2023-05-11T06:16:45.490Z,11.70
2023-05-11T06:19:13.411Z,11.73
2023-05-11T06:21:42.902Z,10.18
2023-05-11T06:24:09.768Z,10.65
2023-05-11T06:26:38.605Z,9.00
2023-05-11T06:29:05.376Z,9.52
2023-05-11T06:31:32.612Z,11.32
2023-05-11T06:33:59.767Z,12.07
2023-05-11T06:36:28.644Z,11.82
2023-05-11T06:38:55.459Z,12.07
2023-05-11T06:41:22.682Z,12.30
2023-05-11T06:43:49.672Z,12.57
2023-05-11T06:46:27.744Z,12.35
2023-05-11T06:48:54.552Z,12.27
2023-05-11T06:51:22.018Z,12.02
2023-05-11T06:53:49.025Z,12.32
2023-05-11T06:56:15.926Z,12.60
2023-05-11T06:58:43.067Z,11.10
2023-05-11T07:01:11.680Z,12.43
2023-05-11T07:03:38.382Z,13.35
2023-05-11T07:06:05.221Z,12.65
2023-05-11T07:08:31.939Z,11.70
2023-05-11T07:10:58.687Z,13.25
2023-05-11T07:13:25.484Z,12.85
2023-05-11T07:15:53.056Z,11.77
2023-05-11T07:18:20.822Z,12.50
2023-05-11T07:20:50.047Z,13.00
2023-05-11T07:23:17.210Z,11.55
2023-05-11T07:25:43.879Z,12.20
2023-05-11T07:28:10.617Z,12.68
2023-05-11T07:30:37.278Z,11.82
2023-05-11T07:33:04.228Z,11.93
2023-05-11T07:35:30.931Z,12.63
2023-05-11T07:37:57.661Z,12.90
2023-05-11T07:40:24.877Z,12.02
2023-05-11T07:42:51.776Z,12.25
2023-05-11T07:45:18.464Z,11.60
2023-05-11T07:47:45.321Z,12.65
2023-05-11T07:50:12.739Z,11.38
2023-05-11T07:52:39.610Z,12.98
2023-05-11T07:55:06.669Z,11.57
2023-05-11T07:57:33.393Z,11.13
2023-05-11T08:00:00.084Z,11.35
2023-05-11T08:02:26.908Z,12.23
2023-05-11T08:04:53.683Z,12.38
2023-05-11T08:07:20.405Z,12.30
2023-05-11T08:09:47.052Z,12.55
2023-05-11T08:12:14.852Z,12.30
2023-05-11T08:14:43.303Z,12.93
2023-05-11T08:17:10.149Z,12.77
2023-05-11T08:19:37.148Z,13.43
2023-05-11T08:22:04.509Z,10.52
2023-05-11T08:24:31.336Z,12.90
2023-05-11T08:26:58.000Z,11.90
2023-05-11T08:29:27.482Z,8.20
2023-05-11T08:31:54.516Z,11.45
2023-05-11T08:34:22.395Z,11.23
2023-05-11T08:39:24.697Z,9.45
2023-05-11T08:42:02.713Z,8.80
2023-05-11T08:44:30.705Z,9.52
2023-05-11T08:47:11.342Z,9.50
2023-05-11T08:52:13.948Z,7.93
2023-05-11T08:54:40.626Z,8.75
2023-05-11T08:57:07.951Z,9.48
2023-05-11T08:59:35.064Z,8.77
2023-05-11T09:02:04.400Z,8.30
2023-05-11T09:04:32.481Z,7.38
2023-05-11T09:06:59.966Z,8.95
2023-05-11T09:09:26.801Z,8.48
2023-05-11T09:11:54.302Z,8.65
2023-05-11T09:14:27.150Z,7.93
2023-05-11T09:16:54.121Z,8.38
2023-05-11T09:19:21.248Z,7.53
2023-05-11T09:21:48.214Z,8.90
2023-05-11T09:24:14.995Z,7.88
2023-05-11T09:26:41.712Z,7.53
2023-05-11T09:29:08.811Z,8.48
2023-05-11T09:31:44.377Z,7.57
2023-05-11T09:34:22.792Z,8.18
2023-05-11T09:36:54.579Z,8.73
2023-05-11T09:39:42.225Z,10.88
2023-05-11T09:42:21.649Z,10.05
2023-05-11T09:44:48.855Z,10.23
2023-05-11T09:47:17.677Z,10.60
2023-05-11T09:49:46.500Z,10.40
2023-05-11T09:52:14.792Z,10.05
2023-05-11T09:54:43.989Z,9.60
2023-05-11T09:57:27.099Z,9.77
2023-05-11T09:59:55.124Z,8.05
2023-05-11T10:04:51.721Z,7.45
2023-05-11T10:07:36.836Z,7.43
2023-05-11T10:10:08.713Z,7.13
2023-05-11T10:12:38.586Z,6.78
2023-05-11T10:15:07.566Z,6.00
2023-05-11T10:17:34.382Z,5.95
2023-05-11T10:20:04.238Z,6.30
2023-05-11T10:22:31.772Z,6.18
2023-05-11T10:24:59.753Z,5.97
2023-05-11T10:27:27.241Z,5.75
2023-05-11T10:29:54.019Z,5.65
2023-05-11T10:32:21.627Z,5.97
2023-05-11T10:34:50.543Z,6.63
2023-05-11T10:37:17.821Z,5.65
2023-05-11T10:39:48.416Z,6.28
2023-05-11T10:42:25.628Z,6.00
2023-05-11T10:45:16.534Z,5.53
2023-05-11T10:48:20.681Z,6.60
2023-05-11T10:51:12.177Z,5.88
2023-05-11T10:53:57.277Z,6.15
2023-05-11T10:56:42.519Z,5.97
2023-05-11T10:59:45.103Z,5.13
2023-05-11T11:02:12.179Z,5.22
2023-05-11T11:05:10.883Z,4.35
2023-05-11T11:07:57.603Z,4.20
2023-05-11T11:10:37.728Z,4.37
2023-05-11T11:13:09.782Z,4.75
2023-05-11T11:15:54.821Z,3.80
2023-05-11T11:18:28.979Z,4.82
2023-05-11T11:20:57.776Z,5.07
2023-05-11T11:23:39.601Z,4.93
2023-05-11T11:26:07.941Z,5.70
2023-05-11T11:29:02.647Z,3.83
2023-05-11T11:31:34.371Z,5.15
2023-05-11T11:34:37.295Z,5.82
2023-05-11T11:37:05.075Z,4.95
2023-05-11T11:39:43.640Z,5.45
2023-05-11T11:42:15.223Z,4.13
2023-05-11T11:44:43.458Z,4.50
2023-05-11T11:47:20.794Z,4.15
2023-05-11T11:49:50.010Z,4.38
2023-05-11T11:52:29.085Z,4.10
2023-05-11T11:54:57.211Z,4.13
2023-05-11T11:57:29.689Z,4.68
2023-05-11T11:59:56.482Z,4.32
2023-05-11T12:02:23.513Z,5.18
2023-05-11T12:05:14.690Z,5.07
2023-05-11T12:07:43.858Z,3.88
2023-05-11T12:10:13.381Z,4.72
2023-05-11T12:12:41.023Z,5.20
2023-05-11T12:15:08.255Z,5.05
2023-05-11T12:17:38.807Z,4.55
2023-05-11T12:20:14.497Z,5.50
2023-05-11T12:22:41.954Z,6.25
2023-05-11T12:25:11.308Z,6.50
2023-05-11T12:28:06.364Z,5.07
2023-05-11T12:30:34.347Z,4.65
2023-05-11T12:33:04.279Z,5.97
2023-05-11T12:35:33.921Z,5.85
2023-05-11T12:38:04.734Z,6.35
2023-05-11T12:40:31.801Z,6.22
2023-05-11T12:43:00.045Z,5.68
2023-05-11T12:45:28.233Z,5.82
2023-05-11T12:47:57.234Z,5.07
2023-05-11T12:50:24.250Z,7.03
2023-05-11T12:52:51.001Z,7.10
2023-05-11T12:55:31.189Z,7.43
2023-05-11T12:58:18.763Z,8.80
2023-05-11T13:03:24.467Z,8.30
2023-05-11T13:05:52.294Z,9.05
2023-05-11T13:08:19.909Z,9.77
2023-05-11T13:13:29.259Z,10.27
2023-05-11T13:15:56.163Z,10.93
2023-05-11T13:18:23.237Z,12.07
2023-05-11T13:21:05.498Z,12.52
2023-05-11T13:23:32.409Z,11.88
2023-05-11T13:25:59.045Z,12.50
2023-05-11T13:28:26.564Z,11.93
2023-05-11T13:31:03.178Z,12.57
2023-05-11T13:33:30.169Z,14.47
2023-05-11T13:35:56.837Z,14.17
2023-05-11T13:38:23.475Z,13.13
2023-05-11T13:40:50.198Z,11.13
2023-05-11T13:43:16.802Z,11.77
2023-05-11T13:45:43.493Z,12.07
2023-05-11T13:48:10.977Z,11.02
2023-05-11T13:53:04.597Z,12.05
2023-05-11T13:55:31.741Z,11.55
2023-05-11T13:57:58.484Z,12.95
2023-05-11T14:00:25.327Z,12.23
2023-05-11T14:02:52.640Z,11.50
2023-05-11T14:05:19.759Z,12.05
2023-05-11T14:07:48.474Z,12.45
2023-05-11T14:10:17.187Z,21.90
2023-05-11T14:12:44.172Z,14.50
2023-05-11T14:15:11.442Z,15.73
2023-05-11T14:17:38.296Z,14.70
2023-05-11T14:20:06.170Z,14.37
2023-05-11T14:22:32.868Z,13.60
2023-05-11T14:25:00.040Z,12.18
2023-05-11T14:27:26.890Z,12.73
2023-05-11T14:29:54.390Z,12.97
2023-05-11T14:32:21.176Z,12.25
2023-05-11T14:34:48.819Z,12.77
2023-05-11T14:37:15.535Z,12.82
2023-05-11T14:39:42.294Z,11.77
2023-05-11T14:42:09.497Z,12.27
2023-05-11T14:44:36.191Z,12.50
2023-05-11T14:47:03.009Z,13.48
2023-05-11T14:49:29.671Z,13.18
2023-05-11T14:51:57.665Z,13.45
2023-05-11T14:54:24.425Z,13.73
2023-05-11T14:56:56.227Z,13.82
2023-05-11T14:59:24.437Z,14.55
2023-05-11T15:01:51.199Z,15.82
2023-05-11T15:04:19.232Z,15.18
2023-05-11T15:06:46.267Z,15.35
2023-05-11T15:09:13.592Z,15.63
2023-05-11T15:11:40.597Z,15.05
2023-05-11T15:14:07.375Z,16.05
2023-05-11T15:16:34.097Z,15.02
2023-05-11T15:19:00.910Z,16.02
2023-05-11T15:21:27.815Z,13.77
2023-05-11T15:23:54.583Z,11.73
2023-05-11T15:26:22.157Z,9.93
2023-05-11T15:28:49.199Z,9.10
2023-05-11T15:31:15.995Z,10.07
2023-05-11T15:33:43.186Z,8.60
2023-05-11T15:36:15.142Z,10.63
2023-05-11T15:38:43.361Z,11.13
2023-05-11T15:41:10.481Z,10.48
2023-05-11T15:43:37.219Z,11.23
2023-05-11T15:46:04.892Z,11.57
2023-05-11T15:48:31.665Z,11.30
2023-05-11T15:51:02.019Z,11.45
2023-05-11T15:53:28.957Z,10.88
2023-05-11T15:55:56.578Z,11.37
2023-05-11T15:58:23.409Z,10.55
2023-05-11T16:00:50.313Z,10.90
2023-05-11T16:03:17.396Z,10.67
2023-05-11T16:05:44.903Z,10.77
2023-05-11T16:08:12.180Z,9.73
2023-05-11T16:10:39.131Z,9.85
2023-05-11T16:13:06.378Z,10.37
2023-05-11T16:15:33.044Z,9.95
2023-05-11T16:18:01.550Z,10.23
2023-05-11T16:20:30.883Z,10.02
2023-05-11T16:22:57.554Z,9.57
2023-05-11T16:25:24.317Z,9.45
2023-05-11T16:27:51.122Z,8.15
2023-05-11T16:30:24.906Z,8.63
2023-05-11T16:32:53.100Z,9.25
2023-05-11T16:35:20.452Z,8.35
2023-05-11T16:37:48.037Z,8.48
2023-05-11T16:40:19.042Z,8.23
2023-05-11T16:42:47.347Z,7.75
2023-05-11T16:45:15.032Z,6.95
2023-05-11T16:47:41.952Z,7.70
2023-05-11T16:50:09.243Z,6.87
2023-05-11T16:52:35.969Z,6.97
2023-05-11T16:55:03.677Z,7.90
2023-05-11T16:57:31.814Z,7.07
2023-05-11T16:59:58.579Z,7.70
2023-05-11T17:02:25.269Z,7.35
2023-05-11T17:04:52.097Z,7.28
2023-05-11T17:07:18.762Z,7.65
2023-05-11T17:09:45.777Z,7.65
2023-05-11T17:12:12.478Z,7.60
2023-05-11T17:14:39.081Z,7.00
2023-05-11T17:17:07.572Z,7.07
2023-05-11T17:19:34.640Z,7.07
2023-05-11T17:22:01.350Z,6.78
2023-05-11T17:24:28.676Z,7.47
2023-05-11T17:26:55.554Z,6.63
2023-05-11T17:29:22.634Z,7.45
2023-05-11T17:31:51.708Z,7.20
2023-05-11T17:34:19.394Z,6.95
2023-05-11T17:36:46.485Z,7.15
2023-05-11T17:39:13.263Z,6.78
2023-05-11T17:41:39.952Z,6.53
2023-05-11T17:44:06.694Z,6.18
2023-05-11T17:46:34.459Z,5.95
2023-05-11T17:49:01.677Z,5.75
2023-05-11T17:51:28.493Z,5.27
2023-05-11T17:53:56.134Z,5.70
2023-05-11T17:56:22.797Z,5.53
2023-05-11T17:58:51.655Z,5.30
2023-05-11T18:01:19.727Z,5.22
2023-05-11T18:03:46.897Z,5.18
2023-05-11T18:06:13.935Z,4.60
2023-05-11T18:08:40.939Z,4.32
2023-05-11T18:11:10.095Z,4.17
2023-05-11T18:13:36.858Z,3.55
2023-05-11T18:16:04.020Z,3.03
2023-05-11T18:18:30.817Z,2.88
2023-05-11T18:20:57.618Z,2.92
2023-05-11T18:23:24.375Z,3.30
2023-05-11T18:25:51.038Z,3.00
2023-05-11T18:28:17.683Z,4.28
2023-05-11T18:30:44.353Z,3.10
2023-05-11T18:33:11.051Z,2.80
2023-05-11T18:35:40.268Z,2.88
2023-05-11T18:38:07.493Z,2.85
2023-05-11T18:40:35.127Z,3.13
2023-05-11T18:43:01.838Z,2.65
2023-05-11T18:45:30.430Z,2.80
2023-05-11T18:47:57.230Z,3.17
2023-05-11T18:50:24.002Z,3.20
2023-05-11T18:52:50.725Z,3.03
2023-05-11T18:55:17.900Z,2.97
2023-05-11T18:57:45.043Z,3.05
2023-05-11T19:00:12.135Z,3.30
2023-05-11T19:02:38.945Z,3.47
2023-05-11T19:05:06.118Z,2.70
2023-05-11T19:07:33.095Z,3.40
2023-05-11T19:09:59.882Z,3.13
2023-05-11T19:12:27.318Z,2.90
2023-05-11T19:14:56.171Z,3.40
2023-05-11T19:17:23.426Z,2.92
2023-05-11T19:19:50.192Z,3.05
2023-05-11T19:22:17.444Z,2.60
2023-05-11T19:24:44.195Z,3.17
2023-05-11T19:27:10.890Z,2.92
2023-05-11T19:29:37.611Z,3.50
2023-05-11T19:32:04.708Z,3.45
2023-05-11T19:34:31.637Z,3.47
2023-05-11T19:36:58.372Z,3.77
2023-05-11T19:39:25.055Z,5.03
2023-05-11T19:41:51.850Z,3.85
2023-05-11T19:44:18.905Z,4.07
2023-05-11T19:46:47.203Z,4.17
2023-05-11T19:49:15.253Z,4.32
2023-05-11T19:54:09.618Z,4.45
2023-05-11T19:56:36.463Z,4.38
2023-05-11T19:59:04.563Z,4.45
2023-05-11T20:01:31.642Z,4.20
2023-05-11T20:03:58.753Z,4.30
2023-05-11T20:06:25.934Z,4.45
2023-05-11T20:08:53.156Z,4.20
2023-05-11T20:11:22.180Z,4.32
2023-05-11T20:13:49.286Z,4.25
2023-05-11T20:16:16.236Z,4.73
2023-05-11T20:18:43.083Z,5.10
2023-05-11T20:21:10.014Z,5.00
2023-05-11T20:23:37.724Z,4.82
2023-05-11T20:26:04.856Z,5.47
2023-05-11T20:28:32.001Z,5.82
2023-05-11T20:30:59.064Z,6.07
2023-05-11T20:35:55.557Z,6.05
2023-05-11T20:38:22.422Z,6.25
2023-05-11T20:40:49.096Z,6.00
2023-05-11T20:43:16.691Z,5.95
2023-05-11T20:45:43.805Z,6.53
2023-05-11T20:48:10.957Z,6.60
2023-05-11T20:50:39.344Z,6.50
2023-05-11T20:53:06.173Z,6.63
2023-05-11T20:55:32.951Z,6.25
2023-05-11T20:57:59.757Z,5.82
2023-05-11T21:00:26.501Z,5.97
2023-05-11T21:02:53.216Z,6.50
2023-05-11T21:05:20.201Z,7.03
2023-05-11T21:07:46.893Z,6.82
2023-05-11T21:10:14.092Z,6.85
2023-05-11T21:12:40.804Z,6.95
2023-05-11T21:15:08.020Z,7.25
2023-05-11T21:17:35.775Z,7.10
2023-05-11T21:20:05.245Z,6.60
2023-05-11T21:22:33.392Z,7.28
2023-05-11T21:25:00.169Z,9.27
2023-05-11T21:27:26.991Z,10.32
2023-05-11T21:29:53.655Z,7.65
2023-05-11T21:32:20.382Z,7.32
2023-05-11T21:34:47.101Z,8.27
2023-05-11T21:37:14.800Z,7.55
2023-05-11T21:39:42.128Z,7.75
2023-05-11T21:42:08.795Z,7.60
2023-05-11T21:44:35.526Z,7.55
2023-05-11T21:47:02.193Z,8.48
2023-05-11T21:49:28.884Z,8.50
2023-05-11T21:51:55.655Z,8.70
2023-05-11T21:54:22.553Z,8.88
2023-05-11T21:56:50.184Z,9.77
2023-05-11T21:59:17.864Z,9.60
2023-05-11T22:01:45.642Z,9.93
2023-05-11T22:04:12.596Z,10.65
2023-05-11T22:06:39.647Z,10.73
2023-05-11T22:09:06.360Z,11.10
2023-05-11T22:11:34.153Z,11.90
2023-05-11T22:16:27.701Z,11.00
2023-05-11T22:18:54.406Z,12.13
2023-05-11T22:21:21.163Z,11.75
2023-05-11T22:23:47.919Z,11.55
2023-05-11T22:26:14.645Z,11.82
2023-05-11T22:28:41.374Z,11.90
2023-05-11T22:31:08.156Z,12.40
2023-05-11T22:33:34.860Z,12.30
2023-05-11T22:36:01.576Z,12.43
2023-05-11T22:38:28.287Z,20.02
2023-05-11T22:40:55.012Z,12.65
2023-05-11T22:43:22.007Z,12.73
2023-05-11T22:45:49.475Z,12.43
2023-05-11T22:48:16.783Z,13.15
2023-05-11T22:50:47.390Z,12.98
2023-05-11T22:53:14.687Z,12.88
2023-05-11T22:55:42.173Z,13.18
2023-05-11T22:58:08.911Z,12.75
2023-05-11T23:00:35.956Z,12.63
2023-05-11T23:03:03.590Z,13.20
2023-05-11T23:05:30.527Z,13.13
2023-05-11T23:07:59.733Z,13.00
2023-05-11T23:10:29.774Z,12.05
2023-05-11T23:12:56.868Z,11.85
2023-05-11T23:15:23.538Z,11.93
2023-05-11T23:17:50.476Z,11.77
2023-05-11T23:20:17.420Z,12.03
2023-05-11T23:22:44.110Z,13.02
2023-05-11T23:25:11.045Z,11.57
2023-05-11T23:27:37.908Z,12.83
2023-05-11T23:30:05.038Z,12.73
2023-05-11T23:32:31.876Z,12.30
2023-05-11T23:34:58.734Z,11.70
2023-05-11T23:37:25.618Z,12.43
2023-05-11T23:39:52.840Z,11.75
2023-05-11T23:42:19.557Z,11.70
2023-05-11T23:44:46.619Z,11.40
2023-05-11T23:47:13.430Z,12.30
2023-05-11T23:49:40.124Z,11.50
2023-05-11T23:52:07.253Z,12.02
2023-05-11T23:54:34.175Z,12.33
2023-05-11T23:57:02.076Z,12.30
